createdAt,value
2017-11-13T00:01:07.590Z,76.70
2017-11-13T00:03:34.056Z,76.30
2017-11-13T00:06:00.988Z,76.20
2017-11-13T00:08:27.921Z,76.20
2017-11-13T00:10:54.759Z,76.20
2017-11-13T00:13:22.049Z,76.10
2017-11-13T00:15:48.891Z,76.20
2017-11-13T00:18:16.622Z,76.40
2017-11-13T00:20:44.097Z,76.20
2017-11-13T00:23:10.355Z,76.20
2017-11-13T00:25:37.740Z,76.50
2017-11-13T00:28:04.001Z,76.20
2017-11-13T00:30:31.987Z,76.20
2017-11-13T00:32:58.222Z,76.20
2017-11-13T00:35:24.596Z,76.30
2017-11-13T00:37:51.392Z,76.30
2017-11-13T00:40:17.900Z,76.10
2017-11-13T00:42:44.916Z,76.30
2017-11-13T00:45:11.668Z,76.30
2017-11-13T00:47:39.199Z,76.50
2017-11-13T00:50:06.928Z,76.20
2017-11-13T00:52:34.033Z,76.30
2017-11-13T00:55:01.580Z,76.30
2017-11-13T00:57:29.228Z,76.20
2017-11-13T00:59:56.220Z,76.10
2017-11-13T01:02:24.985Z,76.10
2017-11-13T01:04:52.328Z,76.00
2017-11-13T01:07:20.495Z,76.70
2017-11-13T01:09:47.313Z,76.70
2017-11-13T01:12:13.684Z,76.30
2017-11-13T01:14:40.676Z,76.40
2017-11-13T01:17:07.920Z,76.50
2017-11-13T01:19:35.480Z,76.50
2017-11-13T01:22:02.782Z,77.50
2017-11-13T01:24:29.487Z,76.70
2017-11-13T01:26:55.683Z,76.40
2017-11-13T01:29:22.644Z,76.50
2017-11-13T01:31:49.942Z,76.80
2017-11-13T01:34:16.947Z,76.50
2017-11-13T01:36:43.703Z,76.40
2017-11-13T01:39:10.472Z,77.00
2017-11-13T01:41:36.882Z,77.20
2017-11-13T01:44:03.948Z,77.30
2017-11-13T01:46:30.449Z,77.20
2017-11-13T01:48:58.397Z,77.10
2017-11-13T01:51:24.681Z,77.10
2017-11-13T01:53:50.882Z,77.30
2017-11-13T01:56:18.412Z,77.50
2017-11-13T01:58:45.931Z,77.50
2017-11-13T02:01:12.692Z,77.30
2017-11-13T02:03:39.018Z,77.60
2017-11-13T02:06:05.444Z,77.20
2017-11-13T02:08:33.245Z,77.00
2017-11-13T02:10:59.527Z,77.00
2017-11-13T02:13:26.012Z,77.10
2017-11-13T02:15:53.444Z,77.20
2017-11-13T02:18:20.908Z,77.00
2017-11-13T02:20:48.074Z,77.40
2017-11-13T02:23:15.218Z,77.50
2017-11-13T02:25:42.272Z,77.50
2017-11-13T02:28:08.689Z,77.40
2017-11-13T02:30:36.000Z,77.30
2017-11-13T02:33:02.886Z,77.30
2017-11-13T02:35:30.463Z,77.90
2017-11-13T02:37:58.058Z,78.00
2017-11-13T02:40:25.766Z,77.30
2017-11-13T02:42:52.818Z,77.60
2017-11-13T02:45:20.426Z,77.90
2017-11-13T02:47:47.248Z,77.70
2017-11-13T02:50:14.481Z,77.50
2017-11-13T02:52:41.727Z,77.90
2017-11-13T02:55:09.225Z,78.00
2017-11-13T02:57:37.292Z,78.10
2017-11-13T03:00:03.565Z,78.00
2017-11-13T03:02:29.784Z,78.20
2017-11-13T03:04:57.493Z,78.30
2017-11-13T03:07:24.560Z,77.80
2017-11-13T03:09:51.752Z,77.80
2017-11-13T03:12:17.974Z,77.20
2017-11-13T03:14:44.164Z,77.60
2017-11-13T03:17:10.377Z,77.60
2017-11-13T03:19:36.587Z,77.30
2017-11-13T03:22:03.677Z,77.40
2017-11-13T03:24:30.262Z,77.80
2017-11-13T03:26:57.607Z,77.10
2017-11-13T03:29:25.083Z,77.00
2017-11-13T03:31:51.851Z,76.90
2017-11-13T03:34:18.634Z,77.00
2017-11-13T03:36:45.648Z,75.80
2017-11-13T03:39:12.399Z,75.80
2017-11-13T03:41:38.694Z,75.60
2017-11-13T03:44:05.014Z,76.00
2017-11-13T03:46:31.476Z,76.20
2017-11-13T03:48:58.218Z,76.30
2017-11-13T03:51:24.984Z,76.50
2017-11-13T03:53:51.304Z,76.90
2017-11-13T03:56:18.089Z,76.70
2017-11-13T03:58:45.029Z,76.80
2017-11-13T04:01:11.903Z,76.40
2017-11-13T04:03:38.645Z,76.30
2017-11-13T04:06:05.291Z,76.70
2017-11-13T04:08:31.525Z,77.00
2017-11-13T04:10:57.760Z,77.70
2017-11-13T04:13:24.108Z,76.90
2017-11-13T04:15:52.157Z,76.80
2017-11-13T04:18:19.199Z,77.00
2017-11-13T04:20:46.340Z,76.90
2017-11-13T04:23:13.243Z,76.80
2017-11-13T04:25:40.268Z,76.40
2017-11-13T04:28:06.605Z,76.40
2017-11-13T04:30:32.808Z,75.90
2017-11-13T04:32:59.974Z,75.90
2017-11-13T04:35:26.468Z,76.10
2017-11-13T04:37:53.337Z,76.40
2017-11-13T04:40:20.101Z,75.70
2017-11-13T04:42:47.116Z,75.90
2017-11-13T04:45:14.060Z,75.90
2017-11-13T04:47:41.286Z,76.00
2017-11-13T04:50:07.841Z,76.00
2017-11-13T04:52:35.071Z,75.70
2017-11-13T04:55:01.353Z,75.80
2017-11-13T04:57:27.883Z,75.40
2017-11-13T04:59:54.712Z,74.80
2017-11-13T05:02:22.220Z,75.70
2017-11-13T05:04:48.607Z,75.90
2017-11-13T05:07:15.837Z,75.10
2017-11-13T05:09:43.849Z,75.30
2017-11-13T05:12:10.820Z,74.80
2017-11-13T05:14:37.695Z,74.70
2017-11-13T05:17:04.965Z,75.20
2017-11-13T05:19:31.628Z,75.50
2017-11-13T05:21:59.112Z,75.40
2017-11-13T05:24:26.380Z,75.30
2017-11-13T05:26:52.867Z,75.40
2017-11-13T05:29:20.815Z,75.60
2017-11-13T05:31:47.605Z,75.50
2017-11-13T05:34:14.350Z,75.60
2017-11-13T05:36:42.144Z,75.30
2017-11-13T05:39:09.809Z,74.30
2017-11-13T05:41:35.995Z,74.30
2017-11-13T05:44:02.891Z,74.10
2017-11-13T05:46:29.478Z,74.70
2017-11-13T05:48:57.145Z,74.90
2017-11-13T05:51:23.500Z,74.80
2017-11-13T05:53:50.991Z,74.60
2017-11-13T05:56:17.976Z,74.90
2017-11-13T05:58:44.313Z,74.90
2017-11-13T06:01:11.606Z,75.00
2017-11-13T06:03:38.403Z,75.00
2017-11-13T06:06:04.726Z,75.10
2017-11-13T06:08:30.988Z,75.50
2017-11-13T06:10:57.295Z,74.90
2017-11-13T06:13:24.118Z,75.00
2017-11-13T06:15:51.085Z,75.30
2017-11-13T06:18:17.371Z,75.60
2017-11-13T06:20:43.851Z,75.90
2017-11-13T06:23:10.129Z,76.00
2017-11-13T06:25:37.780Z,75.90
2017-11-13T06:28:05.649Z,75.80
2017-11-13T06:30:31.876Z,76.00
2017-11-13T06:32:59.081Z,76.00
2017-11-13T06:35:25.836Z,76.20
2017-11-13T06:37:53.789Z,76.20
2017-11-13T06:40:21.055Z,76.20
2017-11-13T06:42:47.252Z,76.00
2017-11-13T06:45:13.512Z,75.70
2017-11-13T06:47:40.069Z,76.00
2017-11-13T06:50:07.201Z,76.00
2017-11-13T06:52:33.435Z,76.20
2017-11-13T06:54:59.841Z,76.50
2017-11-13T06:57:27.090Z,76.40
2017-11-13T06:59:55.102Z,76.40
2017-11-13T07:02:22.071Z,76.30
2017-11-13T07:04:48.343Z,76.30
2017-11-13T07:07:15.118Z,76.80
2017-11-13T07:09:41.333Z,76.90
2017-11-13T07:12:08.250Z,76.90
2017-11-13T07:14:35.492Z,77.00
2017-11-13T07:17:03.673Z,77.60
2017-11-13T07:19:30.698Z,78.10
2017-11-13T07:21:56.998Z,78.00
2017-11-13T07:24:23.745Z,77.80
2017-11-13T07:26:51.704Z,77.40
2017-11-13T07:29:18.508Z,77.40
2017-11-13T07:31:45.737Z,77.40
2017-11-13T07:34:11.984Z,76.90
2017-11-13T07:36:38.248Z,77.10
2017-11-13T07:39:05.090Z,77.20
2017-11-13T07:41:31.631Z,77.20
2017-11-13T07:43:58.188Z,77.20
2017-11-13T07:46:25.867Z,77.00
2017-11-13T07:48:52.083Z,77.00
2017-11-13T07:51:18.431Z,76.90
2017-11-13T07:53:44.743Z,76.60
2017-11-13T07:56:11.751Z,76.50
2017-11-13T07:58:38.487Z,76.50
2017-11-13T08:01:06.092Z,76.60
2017-11-13T08:03:32.320Z,76.60
2017-11-13T08:05:59.275Z,76.00
2017-11-13T08:08:26.522Z,76.00
2017-11-13T08:10:53.263Z,75.50
2017-11-13T08:13:19.491Z,75.80
2017-11-13T08:15:46.344Z,75.80
2017-11-13T08:18:12.574Z,75.90
2017-11-13T08:20:38.807Z,76.20
2017-11-13T08:23:05.022Z,76.20
2017-11-13T08:25:32.777Z,76.00
2017-11-13T08:28:00.209Z,76.40
2017-11-13T08:30:27.905Z,75.90
2017-11-13T08:32:54.238Z,75.90
2017-11-13T08:35:20.515Z,75.90
2017-11-13T08:37:47.086Z,75.80
2017-11-13T08:40:14.708Z,75.30
2017-11-13T08:42:41.661Z,75.30
2017-11-13T08:45:08.147Z,75.60
2017-11-13T08:47:34.356Z,76.00
2017-11-13T08:50:00.754Z,75.70
2017-11-13T08:52:28.390Z,75.30
2017-11-13T08:54:55.191Z,75.20
2017-11-13T08:57:21.464Z,75.30
2017-11-13T08:59:48.217Z,75.10
2017-11-13T09:02:14.792Z,75.40
2017-11-13T09:04:41.964Z,75.80
2017-11-13T09:07:08.879Z,75.90
2017-11-13T09:09:35.941Z,75.90
2017-11-13T09:12:02.412Z,75.90
2017-11-13T09:14:28.893Z,75.60
2017-11-13T09:16:56.444Z,75.40
2017-11-13T09:19:25.038Z,75.30
2017-11-13T09:41:21.462Z,75.30
2017-11-13T09:43:48.278Z,74.80
2017-11-13T09:46:15.897Z,73.70
2017-11-13T09:48:42.939Z,73.00
2017-11-13T09:51:10.879Z,72.70
2017-11-13T09:53:37.113Z,72.70
2017-11-13T09:56:03.889Z,72.90
2017-11-13T09:58:31.357Z,72.70
2017-11-13T10:00:57.956Z,72.90
2017-11-13T10:03:24.181Z,71.60
2017-11-13T10:05:50.829Z,70.20
2017-11-13T10:24:33.019Z,69.70
2017-11-13T10:27:00.348Z,68.60
2017-11-13T10:29:27.902Z,68.80
2017-11-13T10:31:54.184Z,68.80
2017-11-13T10:34:22.157Z,67.10
2017-11-13T10:36:50.697Z,65.90
2017-11-13T10:39:17.208Z,65.70
2017-11-13T10:41:45.239Z,66.50
2017-11-13T10:44:12.184Z,64.70
2017-11-13T10:46:38.909Z,64.70
2017-11-13T10:49:06.565Z,65.00
2017-11-13T10:51:32.825Z,64.90
2017-11-13T10:54:00.073Z,64.30
2017-11-13T10:56:26.434Z,62.70
2017-11-13T10:58:52.862Z,61.80
2017-11-13T11:01:19.637Z,61.50
2017-11-13T11:03:46.062Z,62.40
2017-11-13T11:06:13.317Z,62.70
2017-11-13T11:08:39.694Z,62.30
2017-11-13T11:11:06.554Z,62.20
2017-11-13T11:13:33.402Z,61.20
2017-11-13T11:16:02.660Z,62.40
2017-11-13T11:18:30.321Z,60.60
2017-11-13T11:21:00.929Z,60.50
2017-11-13T11:23:32.219Z,59.90
2017-11-13T11:26:04.528Z,59.90
2017-11-13T11:28:30.733Z,59.30
2017-11-13T11:31:01.525Z,59.50
2017-11-13T11:33:29.232Z,60.60
2017-11-13T11:36:01.792Z,60.60
2017-11-13T11:38:28.025Z,59.80
2017-11-13T11:41:03.227Z,60.50
2017-11-13T11:43:31.648Z,60.60
2017-11-13T11:45:59.826Z,60.50
2017-11-13T11:48:32.771Z,60.60
2017-11-13T11:51:00.279Z,60.10
2017-11-13T11:53:27.130Z,60.20
2017-11-13T11:56:08.296Z,60.10
2017-11-13T11:58:35.438Z,58.80
2017-11-13T12:01:02.501Z,59.80
2017-11-13T12:03:29.162Z,59.70
2017-11-13T12:05:57.252Z,60.00
2017-11-13T12:08:24.624Z,56.80
2017-11-13T12:10:52.906Z,57.80
2017-11-13T12:13:20.493Z,56.80
2017-11-13T12:15:47.528Z,55.50
2017-11-13T12:18:14.665Z,55.40
2017-11-13T12:20:41.719Z,54.10
2017-11-13T12:23:08.489Z,53.40
2017-11-13T12:25:35.511Z,53.10
2017-11-13T12:28:01.856Z,53.50
2017-11-13T12:30:28.700Z,53.10
2017-11-13T12:32:54.926Z,54.10
2017-11-13T12:35:22.172Z,54.00
2017-11-13T12:37:48.513Z,54.10
2017-11-13T12:40:14.747Z,54.00
2017-11-13T12:42:41.842Z,55.70
2017-11-13T12:45:08.803Z,55.00
2017-11-13T12:47:35.176Z,55.00
2017-11-13T12:50:02.571Z,55.00
2017-11-13T12:52:29.707Z,55.60
2017-11-13T12:54:56.508Z,55.60
2017-11-13T12:57:22.942Z,54.60
2017-11-13T12:59:49.209Z,55.80
2017-11-13T13:02:16.784Z,53.70
2017-11-13T13:04:43.800Z,52.90
2017-11-13T13:07:10.076Z,52.80
2017-11-13T13:09:36.332Z,53.00
2017-11-13T13:12:02.965Z,53.70
2017-11-13T13:14:29.846Z,53.90
2017-11-13T13:16:56.599Z,55.50
2017-11-13T13:19:24.042Z,56.70
2017-11-13T13:21:51.019Z,56.30
2017-11-13T13:24:18.592Z,56.80
2017-11-13T13:26:45.956Z,56.70
2017-11-13T13:29:12.698Z,57.00
2017-11-13T13:31:38.960Z,56.70
2017-11-13T13:34:06.339Z,57.40
2017-11-13T13:36:33.453Z,56.90
2017-11-13T13:38:59.668Z,56.80
2017-11-13T13:41:26.432Z,57.40
2017-11-13T13:43:53.502Z,57.80
2017-11-13T13:46:21.173Z,57.50
2017-11-13T13:48:48.146Z,57.60
2017-11-13T13:51:14.502Z,57.60
2017-11-13T13:53:41.042Z,57.90
2017-11-13T13:56:07.303Z,58.40
2017-11-13T13:58:34.714Z,59.40
2017-11-13T14:01:02.395Z,59.70
2017-11-13T14:03:30.035Z,59.60
2017-11-13T14:05:57.076Z,59.80
2017-11-13T14:08:23.823Z,59.80
2017-11-13T14:10:50.846Z,60.20
2017-11-13T14:13:17.284Z,60.10
2017-11-13T14:15:44.301Z,58.90
2017-11-13T14:18:11.370Z,59.20
2017-11-13T14:20:38.106Z,59.20
2017-11-13T14:23:04.774Z,59.40
2017-11-13T14:25:31.641Z,59.20
2017-11-13T14:27:58.314Z,59.80
2017-11-13T14:30:24.790Z,59.50
2017-11-13T14:32:51.054Z,59.40
2017-11-13T14:35:17.498Z,59.20
2017-11-13T14:37:45.394Z,59.40
2017-11-13T14:40:12.921Z,59.40
2017-11-13T14:42:39.922Z,60.10
2017-11-13T14:45:06.928Z,60.10
2017-11-13T14:47:33.916Z,65.00
2017-11-13T14:50:00.114Z,65.00
2017-11-13T14:52:26.978Z,62.20
2017-11-13T14:54:53.374Z,61.40
2017-11-13T14:57:19.852Z,61.70
2017-11-13T14:59:46.729Z,61.40
2017-11-13T15:02:14.300Z,61.20
2017-11-13T15:04:42.001Z,61.60
2017-11-13T15:07:08.703Z,62.30
2017-11-13T15:09:35.896Z,61.60
2017-11-13T15:12:02.169Z,61.60
2017-11-13T15:14:30.192Z,61.70
2017-11-13T15:16:57.224Z,61.70
2017-11-13T15:19:23.645Z,61.40
2017-11-13T15:21:50.509Z,61.60
2017-11-13T15:24:16.867Z,61.00
2017-11-13T15:26:44.016Z,61.70
2017-11-13T15:29:10.645Z,61.70
2017-11-13T15:31:37.643Z,62.20
2017-11-13T15:34:05.251Z,61.80
2017-11-13T15:36:31.545Z,61.80
2017-11-13T15:38:58.009Z,61.90
2017-11-13T15:41:25.619Z,62.20
2017-11-13T15:43:52.612Z,62.40
2017-11-13T15:46:19.069Z,62.20
2017-11-13T15:48:46.043Z,61.90
2017-11-13T15:51:13.635Z,62.20
2017-11-13T15:53:39.885Z,62.10
2017-11-13T15:56:06.108Z,62.20
2017-11-13T15:58:32.991Z,62.40
2017-11-13T16:01:00.464Z,62.70
2017-11-13T16:03:27.553Z,63.00
2017-11-13T16:05:54.035Z,62.90
2017-11-13T16:08:21.570Z,63.00
2017-11-13T16:10:47.799Z,63.00
2017-11-13T16:13:14.546Z,63.00
2017-11-13T16:15:40.782Z,62.90
2017-11-13T16:18:08.358Z,63.70
2017-11-13T16:20:34.600Z,63.60
2017-11-13T16:23:00.883Z,63.50
2017-11-13T16:25:27.205Z,63.30
2017-11-13T16:27:53.710Z,63.10
2017-11-13T16:30:26.870Z,63.10
2017-11-13T16:32:53.738Z,63.20
2017-11-13T16:35:20.008Z,64.20
2017-11-13T16:37:46.506Z,64.00
2017-11-13T16:40:13.550Z,64.10
2017-11-13T16:42:39.860Z,64.10
2017-11-13T16:45:06.623Z,63.90
2017-11-13T16:47:33.754Z,63.90
2017-11-13T16:50:00.521Z,63.90
2017-11-13T16:52:26.744Z,64.00
2017-11-13T16:54:53.993Z,63.80
2017-11-13T16:57:20.301Z,64.00
2017-11-13T16:59:48.022Z,65.00
2017-11-13T17:02:14.861Z,65.30
2017-11-13T17:04:41.276Z,65.30
2017-11-13T17:07:08.377Z,64.90
2017-11-13T17:09:35.421Z,64.70
2017-11-13T17:12:03.108Z,65.00
2017-11-13T17:14:30.367Z,65.40
2017-11-13T17:16:57.391Z,65.40
2017-11-13T17:19:24.345Z,65.70
2017-11-13T17:21:51.769Z,65.80
2017-11-13T17:24:18.880Z,65.30
2017-11-13T17:26:45.077Z,65.20
2017-11-13T17:29:11.919Z,65.30
2017-11-13T17:31:38.849Z,64.70
2017-11-13T17:34:05.981Z,64.80
2017-11-13T17:36:33.521Z,64.80
2017-11-13T17:38:59.731Z,64.80
2017-11-13T17:41:26.069Z,64.90
2017-11-13T17:43:52.849Z,65.20
2017-11-13T17:46:19.844Z,65.10
2017-11-13T17:48:46.479Z,65.10
2017-11-13T17:51:14.148Z,65.20
2017-11-13T17:53:40.651Z,65.20
2017-11-13T17:56:07.492Z,66.70
2017-11-13T17:58:33.707Z,66.20
2017-11-13T18:01:00.035Z,66.40
2017-11-13T18:03:26.263Z,66.40
2017-11-13T18:05:52.483Z,66.40
2017-11-13T18:08:20.075Z,66.70
2017-11-13T18:10:46.275Z,66.70
2017-11-13T18:13:13.052Z,66.90
2017-11-13T18:15:39.275Z,67.10
2017-11-13T18:18:06.112Z,67.50
2017-11-13T18:20:32.509Z,67.60
2017-11-13T18:23:00.105Z,67.40
2017-11-13T18:25:26.885Z,67.40
2017-11-13T18:27:53.931Z,67.60
2017-11-13T18:30:20.204Z,68.10
2017-11-13T18:32:46.454Z,68.10
2017-11-13T18:35:13.206Z,68.30
2017-11-13T18:37:39.476Z,68.10
2017-11-13T18:40:06.631Z,67.90
2017-11-13T18:42:33.774Z,68.20
2017-11-13T18:45:01.379Z,68.20
2017-11-13T18:47:27.645Z,68.10
2017-11-13T18:49:53.901Z,68.30
2017-11-13T18:52:20.882Z,68.20
2017-11-13T18:54:47.694Z,68.20
2017-11-13T18:57:13.918Z,68.30
2017-11-13T18:59:40.144Z,68.60
2017-11-13T19:02:06.354Z,68.70
2017-11-13T19:04:32.724Z,68.70
2017-11-13T19:07:01.030Z,68.90
2017-11-13T19:09:27.266Z,69.00
2017-11-13T19:11:53.511Z,69.70
2017-11-13T19:14:19.776Z,69.50
2017-11-13T19:16:46.544Z,69.00
2017-11-13T19:19:13.288Z,69.20
2017-11-13T19:21:40.053Z,68.90
2017-11-13T19:24:06.281Z,68.70
2017-11-13T19:26:32.632Z,68.80
2017-11-13T19:28:59.791Z,68.60
2017-11-13T19:31:26.851Z,68.50
2017-11-13T19:33:53.580Z,69.20
2017-11-13T19:36:19.821Z,69.80
2017-11-13T19:38:46.070Z,69.10
2017-11-13T19:41:12.949Z,70.30
2017-11-13T19:43:39.845Z,69.50
2017-11-13T19:46:07.973Z,70.40
2017-11-13T19:48:35.222Z,70.40
2017-11-13T19:51:02.095Z,69.30
2017-11-13T19:53:28.476Z,69.50
2017-11-13T19:55:55.305Z,69.80
2017-11-13T19:58:22.413Z,70.80
2017-11-13T20:00:49.554Z,71.40
2017-11-13T20:03:17.243Z,72.00
2017-11-13T20:05:43.685Z,72.00
2017-11-13T20:08:09.892Z,71.90
2017-11-13T20:10:36.119Z,72.00
2017-11-13T20:13:02.327Z,71.30
2017-11-13T20:15:29.509Z,71.60
2017-11-13T20:17:56.895Z,71.60
2017-11-13T20:20:23.101Z,72.70
2017-11-13T20:22:49.369Z,73.00
2017-11-13T20:25:15.704Z,72.50
2017-11-13T20:27:42.026Z,72.10
2017-11-13T20:30:08.244Z,72.90
2017-11-13T20:32:34.853Z,71.40
2017-11-13T20:35:01.877Z,70.70
2017-11-13T20:37:28.077Z,70.70
2017-11-13T20:39:54.318Z,70.70
2017-11-13T20:42:21.438Z,71.70
2017-11-13T20:44:48.022Z,71.60
2017-11-13T20:47:15.371Z,73.10
2017-11-13T20:49:42.102Z,73.00
2017-11-13T20:52:09.225Z,73.20
2017-11-13T20:54:35.477Z,73.20
2017-11-13T20:57:03.039Z,72.90
2017-11-13T20:59:30.005Z,72.00
2017-11-13T21:01:56.477Z,72.00
2017-11-13T21:04:23.492Z,71.50
2017-11-13T21:06:49.734Z,71.40
2017-11-13T21:09:16.339Z,71.10
2017-11-13T21:11:43.407Z,70.90
2017-11-13T21:14:09.923Z,70.90
2017-11-13T21:16:37.807Z,70.70
2017-11-13T21:19:04.894Z,70.90
2017-11-13T21:21:32.114Z,70.50
2017-11-13T21:23:58.475Z,70.40
2017-11-13T21:26:24.904Z,70.60
2017-11-13T21:28:51.308Z,70.50
2017-11-13T21:31:18.485Z,70.60
2017-11-13T21:33:44.788Z,70.30
2017-11-13T21:36:12.035Z,70.40
2017-11-13T21:38:38.282Z,70.40
2017-11-13T21:41:09.986Z,70.20
2017-11-13T21:43:37.650Z,70.30
2017-11-13T21:46:05.330Z,70.50
2017-11-13T21:48:32.045Z,70.40
2017-11-13T21:51:00.221Z,70.30
2017-11-13T21:53:27.187Z,70.70
2017-11-13T21:55:54.449Z,70.70
2017-11-13T21:58:20.879Z,70.60
2017-11-13T22:00:47.103Z,70.20
2017-11-13T22:03:14.310Z,71.10
2017-11-13T22:05:41.800Z,73.60
2017-11-13T22:08:08.683Z,72.80
2017-11-13T22:10:34.882Z,73.30
2017-11-13T22:13:01.718Z,73.60
2017-11-13T22:15:28.972Z,73.60
2017-11-13T22:17:55.802Z,73.30
2017-11-13T22:20:22.100Z,73.50
2017-11-13T22:22:48.375Z,73.80
2017-11-13T22:25:15.399Z,73.90
2017-11-13T22:27:43.671Z,74.30
2017-11-13T22:30:11.238Z,74.50
2017-11-13T22:32:38.729Z,75.00
2017-11-13T22:35:05.495Z,74.90
2017-11-13T22:37:31.908Z,74.80
2017-11-13T22:39:58.931Z,74.70
2017-11-13T22:42:25.160Z,74.60
2017-11-13T22:44:52.828Z,74.60
2017-11-13T22:47:20.647Z,74.60
2017-11-13T22:49:48.386Z,74.30
2017-11-13T22:52:15.993Z,74.20
2017-11-13T22:54:42.209Z,74.20
2017-11-13T22:57:09.612Z,76.00
2017-11-13T22:59:36.087Z,75.90
2017-11-13T23:02:02.462Z,76.30
2017-11-13T23:04:29.238Z,75.70
2017-11-13T23:06:56.196Z,75.90
2017-11-13T23:09:22.567Z,75.70
2017-11-13T23:11:50.217Z,75.70
2017-11-13T23:14:17.543Z,75.50
2017-11-13T23:16:43.866Z,74.50
2017-11-13T23:19:10.262Z,73.90
2017-11-13T23:21:37.273Z,72.90
2017-11-13T23:24:04.336Z,72.90
2017-11-13T23:26:30.535Z,73.20
2017-11-13T23:28:57.940Z,72.30
2017-11-13T23:31:24.311Z,72.30
2017-11-13T23:33:50.673Z,72.10
2017-11-13T23:36:17.922Z,72.40
2017-11-13T23:38:44.917Z,71.90
2017-11-13T23:41:11.455Z,71.90
2017-11-13T23:43:40.370Z,73.10
2017-11-13T23:46:07.575Z,73.10
2017-11-13T23:48:34.403Z,73.80
2017-11-13T23:51:01.250Z,73.20
2017-11-13T23:53:28.514Z,73.20
2017-11-13T23:55:56.040Z,73.30
2017-11-13T23:58:22.859Z,73.90
